Back to Top

Language: 

My Weather Underground Personal Weather Station Historical Data with Graphs...

Delerius Weather Station Historical Data
Daily Summary for March 12, 2017 Units:  English    Metric   Both
« Previous Day
Next Day »
Daily Weekly Monthly Yearly Custom
  High: Low: Average:
Temperature: 60.5 °F 44.1 °F 52.1 °F
Dew Point: 51.2 °F 40.5 °F 47.4 °F
Humidity: 94 % 57 % 85 %
Wind Speed: 11.0 mph 0.0 mph 4.8 mph
Wind Gust: 16.0 mph - -
Wind:- - West
Pressure: 30.18 in 29.84 in -
Precipitation: 0.00 in    
Historical Graphs
 
 
Tabular Data for March 12, 2017
Time Temperature Dew Point Pressure Wind Wind Speed Wind Gust Humidity Rainfall Rate (Hourly) solar Conditions
00:05 53.0 °F 51.0 °F 29.89 in SSW 2.0 mph 8.0 mph 93 % 0.00 in 0 W/m2
00:15 53.0 °F 51.0 °F 29.89 in SSE 4.0 mph 5.0 mph 93 % 0.00 in 0 W/m2
00:20 53.0 °F 51.0 °F 29.89 in SSE 4.0 mph 4.0 mph 93 % 0.00 in 0 W/m2
00:25 53.0 °F 51.0 °F 29.89 in SSE 5.0 mph 7.0 mph 93 % 0.00 in 0 W/m2
00:30 52.9 °F 51.2 °F 29.88 in South 4.0 mph 4.0 mph 94 % 0.00 in 0 W/m2
00:40 52.8 °F 51.1 °F 29.88 in South 3.0 mph 3.0 mph 94 % 0.00 in 0 W/m2
00:45 52.8 °F 51.1 °F 29.88 in South 3.0 mph 3.0 mph 94 % 0.00 in 0 W/m2
00:55 52.8 °F 50.8 °F 29.88 in SSW 3.0 mph 4.0 mph 93 % 0.00 in 0 W/m2
01:00 52.7 °F 51.0 °F 29.88 in SSW 4.0 mph 4.0 mph 94 % 0.00 in 0 W/m2
01:05 52.7 °F 50.7 °F 29.88 in South 4.0 mph 8.0 mph 93 % 0.00 in 0 W/m2
01:15 52.7 °F 50.7 °F 29.88 in SSE 4.0 mph 7.0 mph 93 % 0.00 in 0 W/m2
01:20 52.7 °F 50.7 °F 29.88 in South 4.0 mph 4.0 mph 93 % 0.00 in 0 W/m2
01:25 52.7 °F 50.7 °F 29.88 in SE 4.0 mph 8.0 mph 93 % 0.00 in 0 W/m2
01:30 52.7 °F 50.7 °F 29.88 in SE 3.0 mph 3.0 mph 93 % 0.00 in 0 W/m2
01:35 52.6 °F 50.6 °F 29.87 in SE 2.0 mph 8.0 mph 93 % 0.00 in 0 W/m2
01:40 52.6 °F 50.6 °F 29.87 in SE 1.0 mph 1.0 mph 93 % 0.00 in 0 W/m2
01:50 52.6 °F 50.6 °F 29.87 in South 1.0 mph 1.0 mph 93 % 0.00 in 0 W/m2
01:55 52.5 °F 50.5 °F 29.87 in Calm   8.0 mph 93 % 0.00 in 0 W/m2
02:00 52.4 °F 50.4 °F 29.87 in Calm   8.0 mph 93 % 0.00 in 0 W/m2
02:05 52.4 °F 50.4 °F 29.86 in South 1.0 mph 8.0 mph 93 % 0.00 in 0 W/m2
02:10 52.4 °F 50.4 °F 29.86 in South 2.0 mph 8.0 mph 93 % 0.00 in 0 W/m2
02:20 52.1 °F 50.1 °F 29.86 in South 3.0 mph 8.0 mph 93 % 0.00 in 0 W/m2
02:30 52.0 °F 50.0 °F 29.86 in South 4.0 mph 4.0 mph 93 % 0.00 in 0 W/m2
02:35 52.1 °F 50.1 °F 29.86 in South 4.0 mph 8.0 mph 93 % 0.00 in 0 W/m2
02:40 52.1 °F 50.1 °F 29.85 in South 3.0 mph 8.0 mph 93 % 0.00 in 0 W/m2
02:45 52.0 °F 50.0 °F 29.85 in SSW 4.0 mph 8.0 mph 93 % 0.00 in 0 W/m2
02:50 51.9 °F 49.9 °F 29.85 in South 3.0 mph 3.0 mph 93 % 0.00 in 0 W/m2
02:55 51.9 °F 49.9 °F 29.85 in South 3.0 mph 4.0 mph 93 % 0.00 in 0 W/m2
03:00 51.8 °F 49.8 °F 29.85 in SSW 4.0 mph 8.0 mph 93 % 0.00 in 0 W/m2
03:05 51.8 °F 49.8 °F 29.85 in SSE 4.0 mph 8.0 mph 93 % 0.00 in 0 W/m2
03:10 51.8 °F 49.8 °F 29.85 in SSW 5.0 mph 8.0 mph 93 % 0.00 in 0 W/m2
03:20 51.8 °F 49.8 °F 29.85 in South 6.0 mph 6.0 mph 93 % 0.00 in 0 W/m2
03:30 51.9 °F 49.9 °F 29.85 in South 5.0 mph 8.0 mph 93 % 0.00 in 0 W/m2
03:35 51.9 °F 49.9 °F 29.85 in SSW 4.0 mph 8.0 mph 93 % 0.00 in 0 W/m2
03:40 51.9 °F 49.9 °F 29.85 in SSW 4.0 mph 8.0 mph 93 % 0.00 in 0 W/m2
03:45 51.9 °F 49.9 °F 29.85 in SSW 4.0 mph 8.0 mph 93 % 0.00 in 0 W/m2
03:50 51.9 °F 49.9 °F 29.85 in SSW 3.0 mph 3.0 mph 93 % 0.00 in 0 W/m2
03:55 51.9 °F 49.9 °F 29.85 in SSW 2.0 mph 8.0 mph 93 % 0.00 in 0 W/m2
04:05 51.9 °F 49.9 °F 29.85 in SSW 1.0 mph 8.0 mph 93 % 0.00 in 0 W/m2
04:10 51.9 °F 49.9 °F 29.85 in SSW 1.0 mph 1.0 mph 93 % 0.00 in 0 W/m2
04:15 51.9 °F 49.9 °F 29.85 in SSW 1.0 mph 2.0 mph 93 % 0.00 in 0 W/m2
04:25 52.0 °F 50.0 °F 29.85 in West 2.0 mph 8.0 mph 93 % 0.00 in 0 W/m2
04:30 52.0 °F 50.0 °F 29.85 in West 3.0 mph 8.0 mph 93 % 0.00 in 0 W/m2
04:40 52.1 °F 50.1 °F 29.84 in WSW 5.0 mph 5.0 mph 93 % 0.00 in 0 W/m2
04:45 52.0 °F 50.0 °F 29.84 in WSW 4.0 mph 8.0 mph 93 % 0.00 in 0 W/m2
04:50 52.0 °F 50.0 °F 29.84 in WSW 2.0 mph 2.0 mph 93 % 0.00 in 0 W/m2
04:55 51.9 °F 49.9 °F 29.84 in Calm   8.0 mph 93 % 0.00 in 0 W/m2
05:00 51.8 °F 49.8 °F 29.84 in Calm   8.0 mph 93 % 0.00 in 0 W/m2
05:10 51.7 °F 49.7 °F 29.84 in Calm   8.0 mph 93 % 0.00 in 0 W/m2
05:15 51.7 °F 49.7 °F 29.84 in Calm   8.0 mph 93 % 0.00 in 0 W/m2
05:20 51.6 °F 49.6 °F 29.84 in Calm   8.0 mph 93 % 0.00 in 0 W/m2
05:25 51.5 °F 49.5 °F 29.84 in Calm   8.0 mph 93 % 0.00 in 0 W/m2
05:30 51.5 °F 49.5 °F 29.84 in Calm   8.0 mph 93 % 0.00 in 0 W/m2
05:35 51.4 °F 49.4 °F 29.84 in Calm   8.0 mph 93 % 0.00 in 0 W/m2
05:45 51.3 °F 49.6 °F 29.84 in Calm   8.0 mph 94 % 0.00 in 0 W/m2
05:50 51.3 °F 49.6 °F 29.84 in Calm   8.0 mph 94 % 0.00 in 0 W/m2
05:55 51.3 °F 49.6 °F 29.84 in WSW 1.0 mph 8.0 mph 94 % 0.00 in 0 W/m2
06:05 51.1 °F 49.4 °F 29.84 in WSW 1.0 mph 8.0 mph 94 % 0.00 in 0 W/m2
06:10 51.1 °F 49.4 °F 29.84 in WSW 1.0 mph 1.0 mph 94 % 0.00 in 0 W/m2
06:20 50.9 °F 49.2 °F 29.85 in Calm   8.0 mph 94 % 0.00 in 0 W/m2
06:25 50.8 °F 48.8 °F 29.85 in Calm   8.0 mph 93 % 0.00 in 0 W/m2
06:30 50.7 °F 48.7 °F 29.85 in Calm   8.0 mph 93 % 0.00 in 0 W/m2
06:35 50.6 °F 48.9 °F 29.85 in Calm   8.0 mph 94 % 0.00 in 0 W/m2
06:40 50.6 °F 48.9 °F 29.86 in Calm   8.0 mph 94 % 0.00 in 0 W/m2
06:45 50.6 °F 48.9 °F 29.86 in Calm   8.0 mph 94 % 0.00 in 0 W/m2
06:55 50.7 °F 49.0 °F 29.86 in Calm   8.0 mph 94 % 0.00 in 0 W/m2
07:05 50.7 °F 49.0 °F 29.86 in Calm   8.0 mph 94 % 0.00 in 11 W/m2
07:10 50.7 °F 49.0 °F 29.86 in Calm   8.0 mph 94 % 0.00 in 7 W/m2
07:15 50.7 °F 49.0 °F 29.86 in WSW 1.0 mph 8.0 mph 94 % 0.00 in 7 W/m2
07:20 50.7 °F 49.0 °F 29.87 in WSW 2.0 mph 2.0 mph 94 % 0.00 in 7 W/m2
07:25 50.7 °F 49.0 °F 29.86 in West 1.0 mph 8.0 mph 94 % 0.00 in 12 W/m2
07:30 50.7 °F 49.0 °F 29.87 in Calm   8.0 mph 94 % 0.00 in 12 W/m2
07:35 50.7 °F 49.0 °F 29.87 in West 1.0 mph 8.0 mph 94 % 0.00 in 16 W/m2
07:40 50.7 °F 49.0 °F 29.87 in West 1.0 mph 8.0 mph 94 % 0.00 in 30 W/m2
07:45 50.9 °F 49.2 °F 29.87 in West 2.0 mph 8.0 mph 94 % 0.00 in 35 W/m2
07:50 50.9 °F 49.2 °F 29.87 in West 3.0 mph 3.0 mph 94 % 0.00 in 44 W/m2
08:00 51.1 °F 49.4 °F 29.87 in WSW 4.0 mph 4.0 mph 94 % 0.00 in 54 W/m2
08:10 51.4 °F 49.4 °F 29.88 in WNW 2.0 mph 8.0 mph 93 % 0.00 in 47 W/m2
08:15 51.5 °F 49.5 °F 29.88 in WSW 3.0 mph 8.0 mph 93 % 0.00 in 69 W/m2
08:20 51.5 °F 49.5 °F 29.88 in West 4.0 mph 4.0 mph 93 % 0.00 in 62 W/m2
08:25 51.6 °F 49.6 °F 29.88 in WNW 4.0 mph 5.0 mph 93 % 0.00 in 79 W/m2
08:35 51.8 °F 49.5 °F 29.88 in WNW 1.0 mph 8.0 mph 92 % 0.00 in 69 W/m2
08:40 51.9 °F 49.6 °F 29.88 in NNW 1.0 mph 8.0 mph 92 % 0.00 in 65 W/m2
08:45 51.9 °F 49.4 °F 29.88 in NW 2.0 mph 8.0 mph 91 % 0.00 in 84 W/m2
08:55 52.1 °F 49.6 °F 29.88 in North 4.0 mph 8.0 mph 91 % 0.00 in 188 W/m2
09:00 52.4 °F 49.8 °F 29.88 in NW 3.0 mph 8.0 mph 91 % 0.00 in 130 W/m2
09:05 52.5 °F 49.7 °F 29.88 in NW 4.0 mph 8.0 mph 90 % 0.00 in 142 W/m2
09:10 52.6 °F 49.4 °F 29.88 in NW 4.0 mph 8.0 mph 89 % 0.00 in 151 W/m2
09:20 52.8 °F 49.0 °F 29.88 in NW 5.0 mph 5.0 mph 87 % 0.00 in 171 W/m2
09:25 53.0 °F 49.2 °F 29.88 in WNW 5.0 mph 6.0 mph 87 % 0.00 in 227 W/m2
09:30 53.2 °F 49.4 °F 29.89 in NNW 5.0 mph 5.0 mph 87 % 0.00 in 227 W/m2
09:35 53.4 °F 49.3 °F 29.89 in NW 3.0 mph 7.0 mph 86 % 0.00 in 202 W/m2
09:45 53.6 °F 49.2 °F 29.88 in NW 4.0 mph 8.0 mph 85 % 0.00 in 172 W/m2
09:50 53.7 °F 49.0 °F 29.88 in WNW 5.0 mph 8.0 mph 84 % 0.00 in 178 W/m2
09:55 53.8 °F 49.1 °F 29.89 in NW 4.0 mph 8.0 mph 84 % 0.00 in 206 W/m2
10:00 53.9 °F 49.2 °F 29.89 in West 4.0 mph 8.0 mph 84 % 0.00 in 199 W/m2
10:10 54.0 °F 49.0 °F 29.89 in WNW 4.0 mph 8.0 mph 83 % 0.00 in 227 W/m2
10:15 54.2 °F 49.1 °F 29.90 in WNW 4.0 mph 8.0 mph 83 % 0.00 in 192 W/m2
10:25 54.4 °F 49.0 °F 29.89 in NW 4.0 mph 8.0 mph 82 % 0.00 in 186 W/m2
10:30 54.5 °F 48.8 °F 29.89 in WNW 3.0 mph 8.0 mph 81 % 0.00 in 232 W/m2
10:35 54.6 °F 48.9 °F 29.89 in NNW 2.0 mph 8.0 mph 81 % 0.00 in 308 W/m2
10:40 54.8 °F 49.1 °F 29.89 in NNW 2.0 mph 8.0 mph 81 % 0.00 in 392 W/m2
10:45 55.1 °F 49.0 °F 29.89 in NW 3.0 mph 8.0 mph 80 % 0.00 in 299 W/m2
10:55 55.5 °F 48.8 °F 29.90 in NW 2.0 mph 8.0 mph 78 % 0.00 in 165 W/m2
11:00 55.6 °F 49.2 °F 29.90 in NW 2.0 mph 8.0 mph 79 % 0.00 in 156 W/m2
11:05 55.6 °F 48.8 °F 29.90 in WNW 2.0 mph 8.0 mph 78 % 0.00 in 211 W/m2
11:10 55.5 °F 48.4 °F 29.90 in WNW 2.0 mph 8.0 mph 77 % 0.00 in 227 W/m2
11:15 55.6 °F 48.5 °F 29.90 in WNW 3.0 mph 8.0 mph 77 % 0.00 in 207 W/m2
11:20 55.6 °F 48.5 °F 29.90 in WNW 4.0 mph 8.0 mph 77 % 0.00 in 232 W/m2
11:25 55.7 °F 48.6 °F 29.90 in NNW 4.0 mph 8.0 mph 77 % 0.00 in 241 W/m2
11:30 55.9 °F 48.8 °F 29.90 in NW 3.0 mph 3.0 mph 77 % 0.00 in 209 W/m2
11:35 56.2 °F 48.7 °F 29.91 in WNW 3.0 mph 5.0 mph 76 % 0.00 in 253 W/m2
11:45 56.5 °F 48.3 °F 29.91 in West 3.0 mph 8.0 mph 74 % 0.00 in 264 W/m2
11:50 56.8 °F 49.0 °F 29.91 in WNW 3.0 mph 8.0 mph 75 % 0.00 in 768 W/m2
12:00 57.2 °F 48.6 °F 29.91 in West 5.0 mph 5.0 mph 73 % 0.00 in 315 W/m2
12:05 57.5 °F 48.9 °F 29.91 in WSW 6.0 mph 7.0 mph 73 % 0.00 in 759 W/m2
12:10 58.1 °F 48.7 °F 29.91 in NW 5.0 mph 5.0 mph 71 % 0.00 in 417 W/m2
12:15 58.6 °F 49.6 °F 29.91 in WNW 5.0 mph 6.0 mph 72 % 0.00 in 768 W/m2
12:20 59.0 °F 49.2 °F 29.91 in WNW 4.0 mph 8.0 mph 70 % 0.00 in 244 W/m2
12:30 59.1 °F 48.9 °F 29.91 in West 5.0 mph 8.0 mph 69 % 0.00 in 258 W/m2
12:35 59.4 °F 49.2 °F 29.91 in WNW 5.0 mph 8.0 mph 69 % 0.00 in 731 W/m2
12:40 59.6 °F 49.0 °F 29.91 in WSW 6.0 mph 11.0 mph 68 % 0.00 in 756 W/m2
12:45 59.6 °F 47.8 °F 29.92 in WNW 8.0 mph 11.0 mph 65 % 0.00 in 679 W/m2
12:50 59.9 °F 47.7 °F 29.91 in NNW 8.0 mph 10.0 mph 64 % 0.00 in 652 W/m2
12:55 60.2 °F 48.4 °F 29.92 in West 8.0 mph 10.0 mph 65 % 0.00 in 652 W/m2
13:00 60.1 °F 47.9 °F 29.92 in NW 9.0 mph 15.0 mph 64 % 0.00 in 675 W/m2
13:05 59.9 °F 47.3 °F 29.92 in West 9.0 mph 15.0 mph 63 % 0.00 in 691 W/m2
13:15 60.1 °F 47.0 °F 29.92 in WNW 9.0 mph 9.0 mph 62 % 0.00 in 587 W/m2
13:20 60.1 °F 46.6 °F 29.92 in West 9.0 mph 13.0 mph 61 % 0.00 in 559 W/m2
13:25 60.1 °F 46.2 °F 29.92 in WNW 9.0 mph 13.0 mph 60 % 0.00 in 610 W/m2
13:30 60.0 °F 46.1 °F 29.92 in West 9.0 mph 10.0 mph 60 % 0.00 in 628 W/m2
13:40 60.4 °F 46.9 °F 29.92 in West 8.0 mph 10.0 mph 61 % 0.00 in 557 W/m2
13:45 60.3 °F 46.4 °F 29.92 in West 8.0 mph 10.0 mph 60 % 0.00 in 517 W/m2
13:55 60.4 °F 45.1 °F 29.93 in WNW 8.0 mph 9.0 mph 57 % 0.00 in 529 W/m2
14:00 60.5 °F 45.2 °F 29.93 in WSW 8.0 mph 11.0 mph 57 % 0.00 in 524 W/m2
14:05 60.4 °F 45.5 °F 29.93 in West 9.0 mph 11.0 mph 58 % 0.00 in 531 W/m2
14:10 60.2 °F 44.9 °F 29.93 in West 8.0 mph 10.0 mph 57 % 0.00 in 146 W/m2
14:15 59.9 °F 45.5 °F 29.93 in NW 7.0 mph 11.0 mph 59 % 0.00 in 533 W/m2
14:20 60.0 °F 46.1 °F 29.93 in NW 8.0 mph 8.0 mph 60 % 0.00 in 527 W/m2
14:25 60.0 °F 46.5 °F 29.94 in WNW 8.0 mph 10.0 mph 61 % 0.00 in 171 W/m2
14:30 59.6 °F 45.7 °F 29.94 in West 9.0 mph 11.0 mph 60 % 0.00 in 118 W/m2
14:35 59.1 °F 45.7 °F 29.94 in WNW 9.0 mph 11.0 mph 61 % 0.00 in 482 W/m2
14:45 59.1 °F 45.2 °F 29.94 in West 9.0 mph 9.0 mph 60 % 0.00 in 450 W/m2
14:50 59.1 °F 45.2 °F 29.94 in West 10.0 mph 11.0 mph 60 % 0.00 in 473 W/m2
17:35 51.8 °F 46.8 °F 30.01 in NW 5.0 mph 8.0 mph 83 % 0.00 in 28 W/m2
17:40 51.7 °F 46.7 °F 30.02 in WNW 4.0 mph 8.0 mph 83 % 0.00 in 23 W/m2
17:45 51.5 °F 46.5 °F 30.02 in NW 5.0 mph 8.0 mph 83 % 0.00 in 18 W/m2
17:50 51.4 °F 46.4 °F 30.02 in West 5.0 mph 8.0 mph 83 % 0.00 in 14 W/m2
17:55 51.3 °F 46.3 °F 30.03 in WNW 6.0 mph 8.0 mph 83 % 0.00 in 11 W/m2
18:00 51.2 °F 46.5 °F 30.03 in WNW 6.0 mph 6.0 mph 84 % 0.00 in 9 W/m2
18:10 51.1 °F 46.4 °F 30.04 in NW 7.0 mph 7.0 mph 84 % 0.00 in 0 W/m2
18:15 51.0 °F 46.3 °F 30.04 in West 7.0 mph 8.0 mph 84 % 0.00 in 0 W/m2
18:20 51.0 °F 46.3 °F 30.04 in WNW 8.0 mph 12.0 mph 84 % 0.00 in 0 W/m2
18:30 50.9 °F 46.2 °F 30.05 in NW 9.0 mph 11.0 mph 84 % 0.00 in 0 W/m2
18:35 50.7 °F 46.0 °F 30.05 in WNW 9.0 mph 11.0 mph 84 % 0.00 in 0 W/m2
18:45 50.3 °F 45.6 °F 30.05 in WNW 9.0 mph 9.0 mph 84 % 0.00 in 0 W/m2
18:50 50.1 °F 45.8 °F 30.06 in WNW 9.0 mph 9.0 mph 85 % 0.00 in 0 W/m2
18:55 49.9 °F 45.9 °F 30.06 in WNW 9.0 mph 10.0 mph 86 % 0.00 in 0 W/m2
19:00 49.7 °F 45.7 °F 30.06 in WNW 9.0 mph 9.0 mph 86 % 0.00 in 0 W/m2
19:05 49.5 °F 45.5 °F 30.06 in NW 9.0 mph 9.0 mph 86 % 0.00 in 0 W/m2
19:15 49.1 °F 45.1 °F 30.07 in NW 8.0 mph 12.0 mph 86 % 0.00 in 0 W/m2
19:20 48.8 °F 44.8 °F 30.07 in WNW 7.0 mph 9.0 mph 86 % 0.00 in 0 W/m2
19:25 48.7 °F 45.0 °F 30.07 in WNW 7.0 mph 9.0 mph 87 % 0.00 in 0 W/m2
19:30 48.6 °F 44.9 °F 30.08 in NW 8.0 mph 8.0 mph 87 % 0.00 in 0 W/m2
19:35 48.5 °F 44.8 °F 30.08 in NW 7.0 mph 11.0 mph 87 % 0.00 in 0 W/m2
19:40 48.5 °F 44.8 °F 30.08 in West 8.0 mph 12.0 mph 87 % 0.00 in 0 W/m2
19:50 48.6 °F 44.6 °F 30.08 in WNW 9.0 mph 14.0 mph 86 % 0.00 in 0 W/m2
19:55 48.6 °F 44.6 °F 30.08 in WNW 10.0 mph 14.0 mph 86 % 0.00 in 0 W/m2
20:00 48.6 °F 44.6 °F 30.09 in WNW 10.0 mph 10.0 mph 86 % 0.00 in 0 W/m2
20:05 48.5 °F 44.5 °F 30.09 in NW 9.0 mph 10.0 mph 86 % 0.00 in 0 W/m2
20:10 48.4 °F 44.4 °F 30.09 in WNW 9.0 mph 12.0 mph 86 % 0.00 in 0 W/m2
20:25 48.2 °F 44.2 °F 30.10 in WNW 10.0 mph 11.0 mph 86 % 0.00 in 0 W/m2
20:30 48.1 °F 44.1 °F 30.11 in West 10.0 mph 10.0 mph 86 % 0.00 in 0 W/m2
20:40 47.9 °F 43.6 °F 30.11 in WNW 8.0 mph 10.0 mph 85 % 0.00 in 0 W/m2
20:50 47.5 °F 43.2 °F 30.11 in WNW 8.0 mph 8.0 mph 85 % 0.00 in 0 W/m2
20:55 47.3 °F 43.0 °F 30.12 in NW 8.0 mph 13.0 mph 85 % 0.00 in 0 W/m2
21:00 47.2 °F 42.9 °F 30.12 in NW 10.0 mph 10.0 mph 85 % 0.00 in 0 W/m2
21:05 47.0 °F 42.7 °F 30.12 in WNW 10.0 mph 16.0 mph 85 % 0.00 in 0 W/m2
21:10 46.9 °F 42.6 °F 30.12 in WNW 10.0 mph 10.0 mph 85 % 0.00 in 0 W/m2
21:15 46.8 °F 42.5 °F 30.13 in NW 10.0 mph 10.0 mph 85 % 0.00 in 0 W/m2
21:25 46.6 °F 42.3 °F 30.13 in WNW 9.0 mph 10.0 mph 85 % 0.00 in 0 W/m2
21:35 46.5 °F 42.2 °F 30.13 in WNW 10.0 mph 16.0 mph 85 % 0.00 in 0 W/m2
21:40 46.4 °F 42.1 °F 30.13 in WNW 9.0 mph 9.0 mph 85 % 0.00 in 0 W/m2
21:45 46.2 °F 42.2 °F 30.14 in WNW 9.0 mph 16.0 mph 86 % 0.00 in 0 W/m2
21:50 46.2 °F 42.2 °F 30.14 in WNW 8.0 mph 16.0 mph 86 % 0.00 in 0 W/m2
21:55 46.1 °F 42.1 °F 30.14 in NW 8.0 mph 16.0 mph 86 % 0.00 in 0 W/m2
22:05 45.9 °F 41.9 °F 30.14 in WNW 8.0 mph 16.0 mph 86 % 0.00 in 0 W/m2
22:10 45.9 °F 41.9 °F 30.14 in WNW 9.0 mph 9.0 mph 86 % 0.00 in 0 W/m2
22:15 45.9 °F 41.9 °F 30.15 in NW 11.0 mph 11.0 mph 86 % 0.00 in 0 W/m2
22:20 45.8 °F 41.9 °F 30.15 in WNW 10.0 mph 10.0 mph 86 % 0.00 in 0 W/m2
22:25 45.8 °F 41.9 °F 30.15 in WNW 8.0 mph 16.0 mph 86 % 0.00 in 0 W/m2
22:30 45.7 °F 41.8 °F 30.15 in NW 8.0 mph 8.0 mph 86 % 0.00 in 0 W/m2
22:40 45.4 °F 41.5 °F 30.15 in WNW 8.0 mph 16.0 mph 86 % 0.00 in 0 W/m2
22:45 45.3 °F 41.7 °F 30.16 in WNW 8.0 mph 16.0 mph 87 % 0.00 in 0 W/m2
22:55 45.1 °F 41.5 °F 30.16 in West 7.0 mph 16.0 mph 87 % 0.00 in 0 W/m2
23:00 45.0 °F 41.4 °F 30.17 in NW 6.0 mph 6.0 mph 87 % 0.00 in 0 W/m2
23:05 44.9 °F 41.3 °F 30.17 in WNW 5.0 mph 16.0 mph 87 % 0.00 in 0 W/m2
23:15 44.7 °F 41.4 °F 30.17 in West 5.0 mph 16.0 mph 88 % 0.00 in 0 W/m2
23:20 44.7 °F 41.4 °F 30.17 in WNW 6.0 mph 16.0 mph 88 % 0.00 in 0 W/m2
23:25 44.7 °F 41.4 °F 30.17 in WNW 7.0 mph 16.0 mph 88 % 0.00 in 0 W/m2
23:30 44.6 °F 41.0 °F 30.17 in West 7.0 mph 16.0 mph 87 % 0.00 in 0 W/m2
23:35 44.5 °F 40.9 °F 30.18 in NW 7.0 mph 16.0 mph 87 % 0.00 in 0 W/m2
23:40 44.4 °F 40.8 °F 30.17 in West 8.0 mph 16.0 mph 87 % 0.00 in 0 W/m2
23:45 44.4 °F 40.8 °F 30.18 in NW 7.0 mph 16.0 mph 87 % 0.00 in 0 W/m2
23:50 44.2 °F 40.6 °F 30.18 in WNW 6.0 mph 6.0 mph 87 % 0.00 in 0 W/m2
23:55 44.1 °F 40.5 °F 30.18 in WNW 5.0 mph 16.0 mph 87 % 0.00 in 0 W/m2
Delerius-Weather
Compliments of Weather Underground - 1.75 mb

Data updates at regular intervals.